Time;durP1;ratioP1;P1;durP2;ratioP2;P2;SDS_P1;SDS_P2;PMS_P1;PMS_P2;Temp;Humidity;BMP_temperature;BMP_pressure;BME280_temperature;BME280_humidity;BME280_pressure;Samples;Min_cycle;Max_cycle;Signal;HPM_P1;HPM_P2
2021/03/04 00:01:28;;;;;;;15.47;12.40;;;5.60;94.00;12.70;100142.00;;;;5069848;28;20338;-66
2021/03/04 00:03:53;;;;;;;16.98;13.70;;;5.60;94.00;12.80;100138.00;;;;5071432;28;20270;-66
2021/03/04 00:06:19;;;;;;;17.63;13.57;;;5.60;94.00;12.80;100132.00;;;;5054427;28;20243;-67
2021/03/04 00:08:45;;;;;;;16.57;12.93;;;5.60;94.00;12.60;100132.00;;;;5070711;28;20185;-66
2021/03/04 00:11:10;;;;;;;15.77;14.00;;;5.60;94.00;12.70;100126.00;;;;5053188;28;20197;-66
2021/03/04 00:13:36;;;;;;;18.53;14.17;;;5.60;94.00;12.60;100123.00;;;;5072425;28;20185;-67
2021/03/04 00:16:02;;;;;;;14.60;11.83;;;5.60;94.00;12.60;100133.00;;;;5053289;28;20204;-66
2021/03/04 00:18:27;;;;;;;15.43;12.30;;;5.60;94.00;12.70;100121.00;;;;5021297;28;20227;-67
2021/03/04 00:20:53;;;;;;;15.80;13.07;;;5.60;94.00;12.80;100117.00;;;;5070151;28;20596;-66
2021/03/04 00:23:19;;;;;;;17.83;13.80;;;5.60;94.00;12.80;100109.00;;;;5053452;28;20192;-66
2021/03/04 00:25:45;;;;;;;16.20;12.93;;;5.60;94.00;12.80;100117.00;;;;5053942;28;20193;-67
2021/03/04 00:28:10;;;;;;;16.73;12.80;;;5.60;94.00;12.80;100108.00;;;;5054294;28;20186;-67
2021/03/04 00:30:36;;;;;;;16.13;13.33;;;5.60;94.00;12.70;100115.00;;;;5054196;28;20280;-66
2021/03/04 00:33:02;;;;;;;18.47;13.27;;;5.60;94.00;12.90;100099.00;;;;5071070;28;20225;-66
2021/03/04 00:35:28;;;;;;;19.35;15.10;;;5.60;94.00;12.70;100104.00;;;;5037577;28;20209;-66
2021/03/04 00:37:54;;;;;;;17.00;12.83;;;5.60;94.00;12.70;100079.00;;;;5070901;28;20223;-67
2021/03/04 00:40:21;;;;;;;18.10;13.53;;;5.60;94.00;12.80;100099.00;;;;5071197;28;20201;-66
2021/03/04 00:42:46;;;;;;;16.17;12.80;;;5.60;94.00;12.90;100096.00;;;;5054685;28;20178;-67
2021/03/04 00:45:18;;;;;;;17.13;13.67;;;5.60;94.00;12.80;100077.00;;;;5071615;28;20209;-66
2021/03/04 00:47:43;;;;;;;17.17;13.48;;;5.60;94.00;12.70;100087.00;;;;5038941;28;20178;-66
2021/03/04 00:50:10;;;;;;;17.33;13.60;;;5.60;94.00;12.80;100087.00;;;;5054081;28;20240;-66
2021/03/04 00:52:36;;;;;;;16.00;13.20;;;5.60;94.00;12.70;100087.00;;;;5037782;28;20185;-66
2021/03/04 00:55:02;;;;;;;17.37;14.07;;;5.60;94.00;12.70;100093.00;;;;5072754;28;20216;-66
2021/03/04 00:57:28;;;;;;;15.00;12.27;;;5.60;94.00;12.70;100088.00;;;;5071664;28;20540;-67
2021/03/04 00:59:53;;;;;;;15.90;12.50;;;5.60;94.00;12.70;100070.00;;;;5070097;28;20445;-66
2021/03/04 01:02:19;;;;;;;15.80;12.20;;;5.60;94.00;12.80;100075.00;;;;5054052;28;20181;-67
2021/03/04 01:04:45;;;;;;;19.40;14.60;;;5.60;94.00;12.60;100058.00;;;;5053899;28;20295;-66
2021/03/04 01:07:11;;;;;;;16.27;13.23;;;5.60;94.30;12.60;100062.00;;;;5070179;28;20543;-66
2021/03/04 01:09:36;;;;;;;16.85;13.80;;;5.60;94.00;12.90;100066.00;;;;5054158;28;20491;-66
2021/03/04 01:12:03;;;;;;;17.33;13.37;;;5.60;94.00;12.70;100062.00;;;;5069421;28;20840;-66
2021/03/04 01:14:29;;;;;;;18.27;14.43;;;5.60;94.00;12.80;100067.00;;;;5053957;28;20185;-66
2021/03/04 01:16:54;;;;;;;19.43;14.13;;;5.60;94.00;12.80;100056.00;;;;5053772;28;20177;-66
2021/03/04 01:19:20;;;;;;;17.70;13.73;;;5.60;94.00;12.90;100046.00;;;;5071173;28;20216;-66
2021/03/04 01:21:46;;;;;;;14.73;12.17;;;5.60;94.00;12.80;100052.00;;;;5036939;28;20556;-67
2021/03/04 01:24:12;;;;;;;14.83;12.73;;;5.60;94.00;12.70;100049.00;;;;5070479;28;20185;-66
2021/03/04 01:26:37;;;;;;;16.90;13.80;;;5.60;94.00;12.90;100052.00;;;;5068941;28;20664;-67
2021/03/04 01:29:03;;;;;;;18.50;14.80;;;5.60;94.00;12.90;100042.00;;;;5037209;28;20599;-68
2021/03/04 01:31:29;;;;;;;18.05;13.57;;;5.60;94.00;12.80;100050.00;;;;5069735;28;20224;-66
2021/03/04 01:33:55;;;;;;;17.70;13.70;;;5.60;94.00;12.70;100038.00;;;;5069893;28;20268;-68
2021/03/04 01:36:20;;;;;;;17.63;14.47;;;5.60;94.40;12.60;100048.00;;;;5069438;28;20572;-67
2021/03/04 01:38:46;;;;;;;18.47;15.50;;;5.60;94.00;12.70;100018.00;;;;5069942;28;20205;-66
2021/03/04 01:41:12;;;;;;;18.47;14.30;;;5.60;94.00;12.80;100026.00;;;;5068869;28;20229;-66
2021/03/04 01:43:38;;;;;;;17.60;14.23;;;5.50;93.90;12.70;100025.00;;;;5069914;28;20173;-67
2021/03/04 01:46:03;;;;;;;19.93;14.13;;;5.50;93.90;12.70;100022.00;;;;5053050;28;20285;-66
2021/03/04 01:48:29;;;;;;;17.33;14.47;;;5.50;93.90;12.90;100027.00;;;;5069758;28;20189;-67
2021/03/04 01:50:55;;;;;;;17.60;13.83;;;5.50;93.90;12.90;100024.00;;;;5069269;28;20441;-67
2021/03/04 01:53:21;;;;;;;16.40;12.83;;;5.50;94.00;12.70;100022.00;;;;5036818;28;20547;-67
2021/03/04 01:55:47;;;;;;;20.40;15.65;;;5.50;93.90;12.70;100013.00;;;;5052752;28;20467;-66
2021/03/04 01:58:13;;;;;;;17.33;13.43;;;5.50;93.90;12.80;100009.00;;;;5069615;28;20213;-67
2021/03/04 02:00:38;;;;;;;19.23;15.37;;;5.50;93.90;12.80;100001.00;;;;5036461;28;20212;-67
2021/03/04 02:03:04;;;;;;;17.07;13.90;;;5.50;93.90;12.80;100008.00;;;;5068948;28;20398;-67
2021/03/04 02:05:30;;;;;;;16.47;13.90;;;5.50;93.90;12.80;99991.00;;;;5069394;28;20255;-66
2021/03/04 02:08:19;;;;;;;21.37;15.20;;;5.50;93.90;12.80;99992.00;;;;5035868;28;20402;-66
2021/03/04 02:10:52;;;;;;;17.08;13.65;;;5.50;93.90;12.70;99992.00;;;;5058526;28;20648;-66
2021/03/04 02:13:39;;;;;;;17.65;14.43;;;5.50;93.90;12.60;99992.00;;;;5052799;28;20241;-66
2021/03/04 02:16:44;;;;;;;17.55;14.35;;;5.50;93.90;12.80;99993.00;;;;5070129;28;20232;-66
2021/03/04 02:19:44;;;;;;;17.05;13.27;;;5.50;93.90;12.80;99984.00;;;;5062605;28;20233;-66
2021/03/04 02:22:43;;;;;;;15.27;12.18;;;5.50;93.90;12.70;99983.00;;;;5068988;28;20212;-66
2021/03/04 02:25:33;;;;;;;18.08;14.65;;;5.50;93.90;12.70;99989.00;;;;5070886;28;20634;-66
2021/03/04 02:28:00;;;;;;;16.20;12.75;;;5.50;93.90;12.60;99978.00;;;;5051791;28;20189;-66
2021/03/04 02:30:32;;;;;;;17.98;13.73;;;5.50;93.90;12.90;99985.00;;;;5019175;28;20211;-66
2021/03/04 02:33:19;;;;;;;19.40;14.48;;;5.50;93.90;12.70;99978.00;;;;5052699;28;20235;-66
2021/03/04 02:35:45;;;;;;;14.77;12.50;;;5.50;93.90;12.50;99961.00;;;;5055115;28;20208;-66
2021/03/04 02:38:13;;;;;;;16.67;14.00;;;5.50;93.90;12.60;99963.00;;;;5051663;28;20205;-66
2021/03/04 02:40:40;;;;;;;16.05;13.15;;;5.50;93.90;12.70;99970.00;;;;5036154;28;20204;-66
2021/03/04 02:43:10;;;;;;;15.65;13.15;;;5.50;93.90;12.70;99958.00;;;;5034792;28;20184;-66
2021/03/04 02:45:36;;;;;;;19.33;14.95;;;5.50;93.90;12.70;99972.00;;;;5052498;28;20198;-66
2021/03/04 02:48:02;;;;;;;16.33;13.47;;;5.50;93.90;12.70;99967.00;;;;5051939;28;20185;-67
2021/03/04 02:50:28;;;;;;;15.98;13.65;;;5.50;93.90;12.70;99955.00;;;;5035767;28;20466;-66
2021/03/04 02:52:53;;;;;;;16.10;13.30;;;5.50;93.90;12.80;99963.00;;;;5035163;28;20207;-66
2021/03/04 02:55:20;;;;;;;12.83;11.53;;;5.50;93.90;12.70;99959.00;;;;5068790;28;20672;-66
2021/03/04 02:57:47;;;;;;;16.20;14.05;;;5.50;93.90;12.70;99967.00;;;;5035116;28;20200;-66
2021/03/04 03:00:19;;;;;;;16.08;13.07;;;5.50;93.90;12.80;99952.00;;;;5036177;28;20280;-66
2021/03/04 03:02:45;;;;;;;17.95;13.68;;;5.50;93.90;12.50;99949.00;;;;5052829;28;20189;-66
2021/03/04 03:05:13;;;;;;;16.13;13.70;;;5.50;93.90;12.70;99966.00;;;;5035256;28;20189;-66
2021/03/04 03:07:43;;;;;;;16.50;12.93;;;5.50;93.90;12.60;99961.00;;;;5035523;28;20639;-66
2021/03/04 03:10:10;;;;;;;16.08;13.27;;;5.50;93.90;12.80;99954.00;;;;5052035;28;20735;-66
2021/03/04 03:12:38;;;;;;;17.05;14.50;;;5.50;93.90;12.90;99952.00;;;;5051468;28;20185;-66
2021/03/04 03:15:09;;;;;;;17.30;14.00;;;5.50;93.90;12.70;99943.00;;;;5052021;28;20208;-66
2021/03/04 03:17:35;;;;;;;16.50;14.02;;;5.50;93.90;12.70;99943.00;;;;5051465;28;20707;-66
2021/03/04 03:20:06;;;;;;;19.80;14.25;;;5.50;93.90;12.70;99949.00;;;;5035489;28;20660;-66
2021/03/04 03:22:32;;;;;;;14.25;12.23;;;5.50;94.20;12.80;99944.00;;;;5034844;28;20593;-66
2021/03/04 03:24:58;;;;;;;16.67;13.23;;;5.50;93.90;12.60;99939.00;;;;5051677;28;20193;-67
2021/03/04 03:27:24;;;;;;;15.63;12.93;;;5.50;93.90;12.70;99929.00;;;;5067682;28;20202;-68
2021/03/04 03:29:50;;;;;;;16.45;13.43;;;5.40;93.80;12.70;99928.00;;;;5051822;28;20216;-66
2021/03/04 03:32:16;;;;;;;16.10;13.40;;;5.40;93.80;12.70;99936.00;;;;5034497;28;20696;-66
2021/03/04 03:34:41;;;;;;;13.73;12.27;;;5.40;93.80;12.70;99935.00;;;;5034778;28;20608;-66
2021/03/04 03:37:07;;;;;;;16.57;13.63;;;5.50;94.20;12.70;99933.00;;;;5035267;28;20188;-66
2021/03/04 03:39:33;;;;;;;14.17;12.67;;;5.40;93.80;12.80;99931.00;;;;5051375;28;20212;-66
2021/03/04 03:41:59;;;;;;;15.93;12.60;;;5.40;93.80;12.80;99934.00;;;;5034691;28;20449;-67
2021/03/04 03:44:25;;;;;;;16.97;14.37;;;5.40;93.80;12.80;99931.00;;;;5051356;28;20456;-66
2021/03/04 03:46:50;;;;;;;15.33;12.20;;;5.40;93.80;12.80;99934.00;;;;5018333;28;20184;-67
2021/03/04 03:49:16;;;;;;;17.53;13.87;;;5.40;93.80;12.70;99924.00;;;;5017977;28;20250;-66
2021/03/04 03:51:43;;;;;;;15.27;13.67;;;5.40;93.80;12.80;99923.00;;;;5051847;28;20268;-67
2021/03/04 03:54:09;;;;;;;15.48;12.52;;;5.40;93.80;12.80;99930.00;;;;5051293;28;20173;-66
2021/03/04 03:56:35;;;;;;;14.80;12.90;;;5.40;93.80;12.60;99931.00;;;;5068074;28;20246;-66
2021/03/04 03:59:01;;;;;;;15.57;13.20;;;5.40;93.80;12.90;99927.00;;;;5034125;28;20731;-66
2021/03/04 04:01:27;;;;;;;15.45;12.48;;;5.40;93.80;12.80;99934.00;;;;5051069;28;20292;-66
2021/03/04 04:03:59;;;;;;;14.45;12.00;;;5.40;93.80;12.70;99923.00;;;;5034658;28;20268;-66
2021/03/04 04:06:29;;;;;;;14.48;12.45;;;5.40;93.80;12.60;99916.00;;;;5070909;28;20242;-67
2021/03/04 04:08:56;;;;;;;16.13;13.23;;;5.40;93.80;12.60;99894.00;;;;5055515;28;20177;-66
2021/03/04 04:11:25;;;;;;;16.40;12.93;;;5.40;93.80;12.60;99902.00;;;;5055087;28;20683;-66
2021/03/04 04:13:51;;;;;;;15.68;13.75;;;5.40;93.80;12.40;99903.00;;;;5070847;28;20181;-66
2021/03/04 04:16:17;;;;;;;14.77;13.23;;;5.40;93.80;12.60;99915.00;;;;5038430;28;20266;-66
2021/03/04 04:18:46;;;;;;;13.70;12.20;;;5.40;93.80;12.80;99899.00;;;;5054364;28;20322;-66
2021/03/04 04:21:13;;;;;;;17.23;13.93;;;5.40;93.80;12.70;99897.00;;;;5038655;28;20444;-66
2021/03/04 04:23:40;;;;;;;15.73;12.45;;;5.40;93.80;12.60;99890.00;;;;5021228;28;20200;-66
2021/03/04 04:26:06;;;;;;;13.57;12.18;;;5.40;94.10;12.50;99893.00;;;;5038332;28;20583;-66
2021/03/04 04:28:31;;;;;;;15.00;13.40;;;5.40;93.80;12.60;99889.00;;;;5054016;28;20173;-67
2021/03/04 04:30:57;;;;;;;15.10;13.30;;;5.40;93.80;12.50;99886.00;;;;5070716;28;20193;-67
2021/03/04 04:33:23;;;;;;;16.07;14.20;;;5.40;93.80;12.60;99886.00;;;;5070863;28;20193;-66
2021/03/04 04:35:48;;;;;;;16.40;13.33;;;5.40;93.80;12.70;99885.00;;;;5070971;28;20197;-66
2021/03/04 04:38:14;;;;;;;16.30;14.00;;;5.40;93.80;12.60;99875.00;;;;5054134;28;20680;-66
2021/03/04 04:40:40;;;;;;;16.93;13.90;;;5.40;93.80;12.70;99854.00;;;;5072639;28;20694;-66
2021/03/04 04:43:06;;;;;;;15.30;13.18;;;5.40;93.80;12.90;99876.00;;;;5053881;28;20195;-66
2021/03/04 04:45:32;;;;;;;16.93;14.00;;;5.40;93.70;12.80;99875.00;;;;5071237;28;20205;-66
2021/03/04 04:47:58;;;;;;;15.50;13.20;;;5.40;93.80;12.60;99861.00;;;;5071167;28;20185;-67
2021/03/04 04:50:23;;;;;;;15.30;13.63;;;5.40;93.80;12.60;99880.00;;;;5053849;28;20430;-66
2021/03/04 04:52:49;;;;;;;17.60;14.37;;;5.40;93.80;12.70;99878.00;;;;5054205;28;20200;-66
2021/03/04 04:55:15;;;;;;;16.00;13.40;;;5.40;93.70;12.80;99872.00;;;;5054240;28;20193;-67
2021/03/04 04:57:41;;;;;;;17.60;14.70;;;5.40;93.80;12.50;99866.00;;;;5070596;28;20860;-67
2021/03/04 05:00:08;;;;;;;17.93;15.37;;;5.40;93.70;12.80;99867.00;;;;5037792;28;20223;-66
2021/03/04 05:02:34;;;;;;;16.58;14.13;;;5.40;93.70;12.70;99867.00;;;;5053998;28;20292;-67
2021/03/04 05:05:00;;;;;;;17.20;14.40;;;5.40;93.70;12.70;99855.00;;;;5052834;28;20714;-66
2021/03/04 05:07:26;;;;;;;15.43;13.80;;;5.40;93.70;12.50;99857.00;;;;5037789;28;20648;-66
2021/03/04 05:09:51;;;;;;;15.20;13.27;;;5.40;93.70;12.70;99861.00;;;;5071764;28;20224;-66
2021/03/04 05:12:17;;;;;;;17.60;14.90;;;5.40;93.70;12.80;99855.00;;;;5070049;28;20663;-66
2021/03/04 05:14:51;;;;;;;15.40;13.47;;;5.40;93.70;12.80;99847.00;;;;5053721;28;20251;-66
2021/03/04 05:17:20;;;;;;;18.25;13.70;;;5.30;93.70;12.70;99856.00;;;;5036359;28;20698;-66
2021/03/04 05:19:46;;;;;;;16.23;14.15;;;5.40;93.70;12.50;99849.00;;;;5053014;28;20280;-66
2021/03/04 05:22:12;;;;;;;16.52;13.40;;;5.30;93.70;12.50;99843.00;;;;5070872;28;20272;-66
2021/03/04 05:24:38;;;;;;;15.50;13.03;;;5.30;93.70;12.70;99848.00;;;;5036442;28;20301;-66
2021/03/04 05:27:04;;;;;;;16.67;14.40;;;5.30;93.80;12.70;99850.00;;;;5069712;28;20208;-66
2021/03/04 05:29:29;;;;;;;19.15;15.38;;;5.30;93.70;12.50;99848.00;;;;5069961;28;20268;-66
2021/03/04 05:31:55;;;;;;;16.57;13.73;;;5.30;93.70;12.90;99866.00;;;;5071039;28;20648;-66
2021/03/04 05:34:21;;;;;;;18.00;15.10;;;5.30;93.70;12.70;99844.00;;;;5070770;28;20189;-66
2021/03/04 05:36:47;;;;;;;16.10;14.40;;;5.30;93.70;12.80;99853.00;;;;5053999;28;20184;-66
2021/03/04 05:39:13;;;;;;;15.60;13.98;;;5.30;93.70;12.90;99850.00;;;;5036671;28;20248;-66
2021/03/04 05:41:39;;;;;;;18.10;14.93;;;5.30;93.70;12.60;99843.00;;;;5071354;28;20194;-67
2021/03/04 05:44:05;;;;;;;17.20;13.87;;;5.30;93.70;12.40;99835.00;;;;5052675;28;20256;-67
2021/03/04 05:46:32;;;;;;;19.42;15.40;;;5.30;93.70;12.70;99822.00;;;;5053792;28;20201;-66
2021/03/04 05:48:58;;;;;;;15.55;13.73;;;5.30;93.70;12.50;99797.00;;;;5053257;28;20209;-67
2021/03/04 05:51:31;;;;;;;17.37;14.67;;;5.30;93.70;12.50;99831.00;;;;5036971;28;20702;-66
2021/03/04 05:53:57;;;;;;;18.27;15.20;;;5.30;93.70;12.70;99830.00;;;;5037144;28;20174;-66
2021/03/04 05:56:23;;;;;;;18.45;14.75;;;5.30;93.70;12.50;99833.00;;;;5069487;28;20556;-66
2021/03/04 05:58:50;;;;;;;16.93;14.30;;;5.30;93.70;12.40;99834.00;;;;5052681;28;20212;-68
2021/03/04 06:01:16;;;;;;;17.35;14.27;;;5.30;93.70;12.50;99818.00;;;;5035813;28;20456;-66
2021/03/04 06:03:41;;;;;;;16.43;14.27;;;5.30;93.70;12.40;99820.00;;;;5053190;28;20188;-65
2021/03/04 06:06:07;;;;;;;16.10;14.20;;;5.30;93.70;12.20;99800.00;;;;5036053;28;20292;-65
2021/03/04 06:08:34;;;;;;;15.05;13.35;;;5.30;93.70;12.30;99809.00;;;;5069387;28;20216;-66
2021/03/04 06:11:02;;;;;;;18.92;15.15;;;5.30;93.70;12.30;99809.00;;;;5052324;28;20200;-65
2021/03/04 06:13:28;;;;;;;17.60;14.45;;;5.30;93.70;12.40;99807.00;;;;5069399;28;20537;-65
2021/03/04 06:15:54;;;;;;;16.25;14.55;;;5.30;93.70;12.40;99818.00;;;;5068446;28;20208;-65
2021/03/04 06:18:20;;;;;;;16.73;14.97;;;5.30;93.70;12.70;99823.00;;;;5052974;28;20204;-65
2021/03/04 06:20:46;;;;;;;19.30;15.57;;;5.30;93.70;12.50;99824.00;;;;5068884;28;20454;-65
2021/03/04 06:23:11;;;;;;;16.93;14.87;;;5.30;93.70;12.40;99813.00;;;;5068930;28;20189;-65
2021/03/04 06:25:37;;;;;;;17.30;14.70;;;5.30;93.70;12.40;99824.00;;;;5019018;28;20219;-66
2021/03/04 06:28:05;;;;;;;16.03;13.93;;;5.30;93.70;12.50;99813.00;;;;5052110;28;20443;-66
2021/03/04 06:30:41;;;;;;;17.75;15.00;;;5.30;93.70;12.40;99812.00;;;;5035833;28;20452;-66
2021/03/04 06:33:11;;;;;;;18.10;14.63;;;5.30;93.70;12.30;99825.00;;;;5036681;28;20716;-67
2021/03/04 06:35:42;;;;;;;17.13;14.98;;;5.30;93.70;12.40;99805.00;;;;5035879;28;20295;-66
2021/03/04 06:38:22;;;;;;;15.57;13.25;;;5.30;93.70;12.50;99807.00;;;;5052457;28;20208;-66
2021/03/04 06:40:50;;;;;;;17.50;14.27;;;5.30;93.70;12.20;99817.00;;;;5020091;28;20212;-66
2021/03/04 06:43:25;;;;;;;16.95;14.60;;;5.30;93.70;12.40;99825.00;;;;5052356;28;20674;-66
2021/03/04 06:46:06;;;;;;;17.60;14.57;;;5.30;93.70;12.30;99813.00;;;;5052058;28;20201;-66
2021/03/04 06:48:32;;;;;;;16.30;14.50;;;5.30;93.70;12.30;99820.00;;;;5052763;28;20223;-66
2021/03/04 06:51:00;;;;;;;19.17;14.73;;;5.30;93.70;12.30;99820.00;;;;5069689;28;20447;-66
2021/03/04 06:53:27;;;;;;;17.48;13.73;;;5.30;93.70;12.30;99824.00;;;;5036075;28;20489;-66
2021/03/04 06:56:06;;;;;;;15.95;13.35;;;5.30;93.70;12.40;99823.00;;;;5052194;28;20667;-66
2021/03/04 06:58:39;;;;;;;16.35;14.07;;;5.30;94.10;12.50;99822.00;;;;5037422;28;20212;-69
2021/03/04 07:01:16;;;;;;;16.38;14.52;;;5.30;93.70;12.30;99826.00;;;;5052772;28;20207;-68
2021/03/04 07:03:50;;;;;;;17.33;14.27;;;5.30;93.70;12.50;99818.00;;;;5036598;28;20180;-69
2021/03/04 07:06:24;;;;;;;17.90;15.60;;;5.30;93.70;12.40;99820.00;;;;5052259;28;20201;-69
2021/03/04 07:08:51;;;;;;;14.77;13.27;;;5.30;93.70;12.20;99813.00;;;;5036736;28;20184;-69
2021/03/04 07:11:22;;;;;;;16.13;14.02;;;5.30;93.70;12.40;99823.00;;;;5051743;28;20209;-69
2021/03/04 07:13:48;;;;;;;16.88;14.27;;;5.30;93.70;12.30;99823.00;;;;5068894;28;20256;-66
2021/03/04 07:16:35;;;;;;;15.98;14.07;;;5.30;93.70;12.30;99807.00;;;;5067996;28;20216;-66
2021/03/04 07:19:01;;;;;;;18.02;14.90;;;5.30;93.70;12.30;99811.00;;;;5021454;28;20706;-66
2021/03/04 07:21:33;;;;;;;15.43;13.80;;;5.30;94.10;12.30;99819.00;;;;5051757;28;20258;-66
2021/03/04 07:24:03;;;;;;;16.83;14.35;;;5.30;93.70;12.30;99819.00;;;;5036931;28;20207;-66
2021/03/04 07:26:29;;;;;;;17.20;14.70;;;5.30;93.70;12.30;99817.00;;;;5051844;28;20193;-66
2021/03/04 07:28:56;;;;;;;16.90;14.10;;;5.30;93.70;12.40;99817.00;;;;5051887;28;20180;-67
2021/03/04 07:31:22;;;;;;;16.63;14.45;;;5.30;93.70;12.30;99813.00;;;;5035252;28;20295;-66
2021/03/04 07:33:51;;;;;;;17.90;14.60;;;5.30;93.70;12.40;99799.00;;;;5051962;28;20185;-66
2021/03/04 07:36:24;;;;;;;16.52;14.30;;;5.30;93.70;12.40;99796.00;;;;5051774;28;20498;-66
2021/03/04 07:38:54;;;;;;;16.38;14.10;;;5.30;93.70;12.30;99808.00;;;;5052273;28;20205;-66
2021/03/04 07:41:20;;;;;;;16.50;14.80;;;5.30;93.70;12.30;99817.00;;;;5054079;28;20189;-66
2021/03/04 07:43:50;;;;;;;16.90;14.70;;;5.30;93.70;12.20;99812.00;;;;5055891;28;20639;-67
2021/03/04 07:46:29;;;;;;;18.67;15.48;;;5.30;93.70;12.30;99809.00;;;;5055925;28;20497;-67
2021/03/04 07:48:55;;;;;;;15.20;13.35;;;5.30;93.70;12.30;99794.00;;;;5074182;28;20176;-67
2021/03/04 07:51:21;;;;;;;17.00;14.75;;;5.30;93.70;12.20;99794.00;;;;5071465;28;20197;-66
2021/03/04 07:53:47;;;;;;;18.60;15.30;;;5.30;93.70;12.30;99799.00;;;;5055447;28;20188;-66
2021/03/04 07:56:30;;;;;;;15.82;13.88;;;5.30;93.70;12.30;99799.00;;;;5072255;28;20224;-66
2021/03/04 07:59:07;;;;;;;17.15;13.95;;;5.30;93.70;12.60;99790.00;;;;5072152;28;20278;-66
2021/03/04 08:01:33;;;;;;;16.88;14.82;;;5.30;93.70;12.20;99797.00;;;;5055540;28;20209;-66
2021/03/04 08:03:59;;;;;;;15.53;13.80;;;5.30;93.70;12.20;99762.00;;;;5072507;28;20723;-66
2021/03/04 08:06:24;;;;;;;15.23;13.63;;;5.30;93.70;12.30;99786.00;;;;5072607;28;20280;-66
2021/03/04 08:08:50;;;;;;;15.77;14.10;;;5.30;93.70;12.30;99790.00;;;;5038780;28;20585;-66
2021/03/04 08:11:37;;;;;;;17.93;14.43;;;5.30;94.10;12.30;99757.00;;;;5071953;28;20254;-66
2021/03/04 08:14:15;;;;;;;16.80;14.23;;;5.30;93.70;12.20;99769.00;;;;5055140;28;20587;-66
2021/03/04 08:16:41;;;;;;;16.15;14.35;;;5.30;93.70;12.30;99776.00;;;;5055201;28;20178;-67
2021/03/04 08:19:07;;;;;;;17.15;14.18;;;5.30;93.70;12.20;99766.00;;;;5038272;28;20243;-66
2021/03/04 08:21:39;;;;;;;16.20;13.10;;;5.30;93.70;12.30;99774.00;;;;5026575;28;20263;-66
2021/03/04 08:24:05;;;;;;;16.25;14.40;;;5.30;93.70;12.30;99766.00;;;;5034678;28;20185;-66
2021/03/04 08:26:36;;;;;;;16.43;14.23;;;5.30;93.70;12.20;99766.00;;;;5042932;28;20205;-66
2021/03/04 08:29:12;;;;;;;15.02;13.35;;;5.30;93.70;12.30;99776.00;;;;5054846;28;20189;-67
2021/03/04 08:31:45;;;;;;;17.40;14.50;;;5.30;93.70;12.20;99767.00;;;;5070696;28;20709;-66
2021/03/04 08:34:11;;;;;;;15.05;13.40;;;5.30;93.80;12.20;99759.00;;;;5037190;28;20174;-66
2021/03/04 08:36:50;;;;;;;15.87;13.77;;;5.30;93.80;12.40;99762.00;;;;5069629;28;20207;-66
2021/03/04 08:39:17;;;;;;;16.55;13.68;;;5.30;93.80;12.30;99761.00;;;;5042146;28;20214;-66
2021/03/04 08:41:43;;;;;;;16.50;13.48;;;5.30;93.80;12.30;99752.00;;;;5050597;28;20320;-66
2021/03/04 08:44:16;;;;;;;16.10;14.40;;;5.30;93.80;12.50;99757.00;;;;5050055;28;20206;-67
2021/03/04 08:46:45;;;;;;;17.02;14.77;;;5.30;93.80;12.60;99755.00;;;;5033565;28;20178;-66
2021/03/04 08:49:16;;;;;;;15.05;13.35;;;5.30;94.10;12.40;99757.00;;;;5050890;28;20197;-67
2021/03/04 08:51:43;;;;;;;18.10;13.93;;;5.30;93.80;12.20;99749.00;;;;5049593;28;20178;-66
2021/03/04 08:54:20;;;;;;;16.95;14.55;;;5.30;93.80;12.50;99749.00;;;;5050446;28;20183;-66
2021/03/04 08:56:58;;;;;;;15.40;13.80;;;5.30;93.70;12.40;99745.00;;;;5049950;28;20188;-66
2021/03/04 08:59:28;;;;;;;15.82;13.57;;;5.30;93.80;12.20;99750.00;;;;5049944;28;20209;-66
2021/03/04 09:01:54;;;;;;;14.98;13.27;;;5.30;93.80;12.40;99747.00;;;;5049950;28;20182;-67
2021/03/04 09:04:22;;;;;;;16.33;13.82;;;5.30;93.80;12.40;99747.00;;;;5049462;28;20186;-66
2021/03/04 09:06:48;;;;;;;16.08;13.98;;;5.30;93.80;12.60;99743.00;;;;5049754;28;20192;-67
2021/03/04 09:09:28;;;;;;;16.33;13.60;;;5.30;93.80;12.50;99748.00;;;;5050139;28;20190;-67
2021/03/04 09:11:55;;;;;;;15.50;12.95;;;5.30;93.80;12.40;99736.00;;;;5032912;28;20786;-66
2021/03/04 09:14:31;;;;;;;15.50;13.70;;;5.30;93.80;12.50;99738.00;;;;5050409;28;20727;-66
2021/03/04 09:16:57;;;;;;;16.75;13.93;;;5.30;93.80;12.40;99745.00;;;;5034420;28;20264;-67
2021/03/04 09:19:33;;;;;;;15.47;13.43;;;5.30;93.80;12.50;99733.00;;;;5051451;28;20692;-66
2021/03/04 09:22:03;;;;;;;15.93;14.25;;;5.30;93.80;12.50;99736.00;;;;5049595;28;20472;-66
2021/03/04 09:24:29;;;;;;;14.48;12.90;;;5.30;93.80;12.50;99737.00;;;;5049949;28;20182;-66
2021/03/04 09:26:55;;;;;;;14.05;12.55;;;5.30;93.80;12.40;99734.00;;;;5050315;28;20185;-66
2021/03/04 09:29:21;;;;;;;15.47;13.40;;;5.30;93.80;12.30;99739.00;;;;5033356;28;20174;-66
2021/03/04 09:31:54;;;;;;;14.57;12.80;;;5.30;93.80;12.60;99733.00;;;;5049947;28;20283;-66
2021/03/04 09:34:41;;;;;;;14.10;12.60;;;5.30;93.80;12.50;99730.00;;;;5050369;28;20182;-66
2021/03/04 09:37:12;;;;;;;15.07;13.38;;;5.30;93.80;12.50;99730.00;;;;5050059;28;20189;-66
2021/03/04 09:39:46;;;;;;;15.02;13.30;;;5.30;93.80;12.50;99710.00;;;;5050969;28;20708;-66
2021/03/04 09:42:32;;;;;;;14.48;12.80;;;5.30;93.80;12.50;99714.00;;;;5049965;28;20672;-67
2021/03/04 09:45:01;;;;;;;14.98;12.30;;;5.30;93.80;12.60;99716.00;;;;5051124;28;20201;-66
2021/03/04 09:47:31;;;;;;;14.63;13.10;;;5.30;94.10;12.70;99702.00;;;;5049406;28;20552;-66
2021/03/04 09:49:58;;;;;;;15.80;13.40;;;5.30;93.80;12.70;99708.00;;;;5049581;28;20553;-66
2021/03/04 09:52:28;;;;;;;13.65;11.48;;;5.30;93.80;12.60;99709.00;;;;5049395;28;20193;-67
2021/03/04 09:55:07;;;;;;;17.02;13.50;;;5.40;93.80;12.80;99694.00;;;;5033503;28;20212;-67
2021/03/04 09:57:33;;;;;;;14.85;13.15;;;5.40;93.80;12.80;99699.00;;;;5049037;28;20182;-67
2021/03/04 10:00:00;;;;;;;14.40;12.70;;;5.40;93.80;12.70;99701.00;;;;5049293;28;20247;-66
2021/03/04 10:02:26;;;;;;;14.45;12.20;;;5.40;93.80;12.70;99702.00;;;;5049350;28;20694;-67
2021/03/04 10:05:00;;;;;;;14.13;12.57;;;5.40;94.10;12.70;99690.00;;;;5050299;28;20221;-67
2021/03/04 10:07:30;;;;;;;14.52;12.35;;;5.40;93.80;12.70;99675.00;;;;5048815;28;20192;-67
2021/03/04 10:09:57;;;;;;;14.10;12.60;;;5.40;93.80;12.60;99665.00;;;;5049630;28;20198;-67
2021/03/04 10:12:23;;;;;;;14.60;11.88;;;5.40;93.80;12.80;99673.00;;;;5049602;28;20186;-67
2021/03/04 10:14:53;;;;;;;14.15;11.95;;;5.40;93.80;12.60;99676.00;;;;5048941;28;20221;-67
2021/03/04 10:17:19;;;;;;;14.80;12.45;;;5.40;93.80;12.70;99675.00;;;;5048723;28;20257;-67
2021/03/04 10:19:45;;;;;;;14.00;12.32;;;5.40;93.80;12.90;99668.00;;;;5049262;28;20267;-66
2021/03/04 10:22:11;;;;;;;12.70;11.40;;;5.40;93.80;12.80;99666.00;;;;5049003;28;20781;-66
2021/03/04 10:24:37;;;;;;;13.70;11.17;;;5.40;93.80;12.60;99666.00;;;;5049289;28;20522;-67
2021/03/04 10:27:03;;;;;;;13.82;12.38;;;5.40;93.80;12.70;99667.00;;;;5049099;28;20418;-67
2021/03/04 10:29:30;;;;;;;13.35;11.82;;;5.40;94.10;12.80;99671.00;;;;5048352;28;20220;-67
2021/03/04 10:31:56;;;;;;;15.02;12.25;;;5.40;93.80;12.80;99662.00;;;;5048923;28;20268;-66
2021/03/04 10:34:22;;;;;;;14.35;10.98;;;5.40;93.80;12.90;99669.00;;;;5032448;28;20421;-67
2021/03/04 10:36:48;;;;;;;13.68;11.80;;;5.40;93.80;12.90;99669.00;;;;5048764;28;20182;-67
2021/03/04 10:39:15;;;;;;;13.85;11.93;;;5.40;93.80;12.50;99664.00;;;;5031877;28;20755;-67
2021/03/04 10:41:42;;;;;;;13.32;11.20;;;5.40;93.80;12.80;99670.00;;;;5048564;28;20652;-67
2021/03/04 10:44:12;;;;;;;14.07;11.98;;;5.40;93.80;12.60;99679.00;;;;5048181;28;20620;-67
2021/03/04 10:46:38;;;;;;;13.48;11.85;;;5.40;93.80;12.70;99672.00;;;;5048809;28;20760;-67
2021/03/04 10:49:04;;;;;;;13.05;11.00;;;5.40;93.80;12.70;99674.00;;;;5048396;28;20273;-67
2021/03/04 10:51:31;;;;;;;14.73;12.40;;;5.40;93.80;12.80;99666.00;;;;5049126;28;20561;-67